Terminal Aerodrome Forecast
Issued by NWS

Home | Current Version | Previous Version | Text Only | Print | Product List | Glossary On
Versions: 1 2 3 4 5 6 7 8 9 10 11 12 13 14 15 16 17 18 19 20 21 22 23 24 25 26 27 28 29 30 31 32
000
FTAK31 PAFA 291136
TAFAOT
TAF
PAOT 291136Z 2912/3012 23015KT P6SM FEW100 SCT250
     FM291400 20015KT P6SM SCT040 BKN100 OVC250
     FM291700 16017G23KT P6SM VCSH BKN040 OVC100
     FM292000 15014G21KT P6SM VCSH SCT015 OVC035
     FM300500 15013G20KT P6SM SCT035 BKN050=

USA.gov is the U.S. government's official web portal to all federal, state and local government web resources and services.